Time;durP1;ratioP1;P1;durP2;ratioP2;P2;SDS_P1;SDS_P2;PMS_P1;PMS_P2;Temp;Humidity;BMP_temperature;BMP_pressure;BME280_temperature;BME280_humidity;BME280_pressure;Samples;Min_cycle;Max_cycle;Signal;HPM_P1;HPM_P2
2024/02/24 00:00:05;;;;;;;3.92;2.17;;;;;;;;;;7413889;19;19910;-79
2024/02/24 00:02:55;;;;;;;4.07;2.38;;;;;;;;;;7414984;19;19913;-79
2024/02/24 00:05:45;;;;;;;7.10;3.03;;;;;;;;;;7410376;19;19914;-79
2024/02/24 00:08:34;;;;;;;7.78;2.63;;;;;;;;;;7414591;19;19982;-79
2024/02/24 00:11:18;;;;;;;3.40;1.90;;;;;;;;;;7412142;19;19935;-79
2024/02/24 00:14:05;;;;;;;5.35;2.08;;;;;;;;;;7414382;19;19911;-79
2024/02/24 00:16:51;;;;;;;6.35;2.63;;;;;;;;;;7410012;19;19907;-79
2024/02/24 00:19:38;;;;;;;6.07;2.45;;;;;;;;;;7411851;19;20007;-79
2024/02/24 00:22:22;;;;;;;;;;;;;;;;;;7415856;19;19922;-79
2024/02/24 00:25:10;;;;;;;6.20;2.05;;;;;;;;;;7414106;19;19910;-79
2024/02/24 00:27:59;;;;;;;4.28;1.88;;;;;;;;;;7413052;19;19922;-79
2024/02/24 00:30:46;;;;;;;6.00;2.45;;;;;;;;;;7413961;19;19918;-79
2024/02/24 00:33:32;;;;;;;3.95;2.05;;;;;;;;;;7418761;19;19948;-79
2024/02/24 00:36:21;;;;;;;8.98;2.80;;;;;;;;;;7422407;19;19926;-79
2024/02/24 00:39:10;;;;;;;5.22;2.75;;;;;;;;;;7419479;19;19933;-79
2024/02/24 00:41:57;;;;;;;;;;;;;;;;;;7416575;19;19952;-79
2024/02/24 00:44:41;;;;;;;4.72;2.13;;;;;;;;;;7415027;19;19994;-79
2024/02/24 00:47:25;;;;;;;;;;;;;;;;;;7415482;19;20013;-79
2024/02/24 00:50:10;;;;;;;6.93;2.42;;;;;;;;;;7411419;19;20540;-79
2024/02/24 00:52:56;;;;;;;7.20;2.50;;;;;;;;;;7409251;19;19911;-79
2024/02/24 00:55:43;;;;;;;5.30;2.13;;;;;;;;;;7409160;19;20270;-79
2024/02/24 00:58:29;;;;;;;;;;;;;;;;;;7411791;19;20274;-79
2024/02/24 01:01:13;;;;;;;6.10;2.40;;;;;;;;;;7410227;19;19943;-79
2024/02/24 01:03:58;;;;;;;4.97;2.42;;;;;;;;;;7410787;19;19923;-79
2024/02/24 01:06:42;;;;;;;5.50;2.67;;;;;;;;;;7409786;19;19918;-79
2024/02/24 01:09:26;;;;;;;8.52;2.35;;;;;;;;;;7408952;19;19970;-79
2024/02/24 01:12:13;;;;;;;10.77;2.40;;;;;;;;;;7408452;19;19933;-79
2024/02/24 01:15:00;;;;;;;5.18;2.13;;;;;;;;;;7412010;19;19910;-79
2024/02/24 01:17:44;;;;;;;4.82;2.00;;;;;;;;;;7408309;19;19974;-79
2024/02/24 01:20:29;;;;;;;5.32;2.10;;;;;;;;;;7410708;19;19947;-79
2024/02/24 01:23:13;;;;;;;3.20;1.90;;;;;;;;;;7409842;19;19919;-79
2024/02/24 01:26:00;;;;;;;4.35;1.88;;;;;;;;;;7409908;19;19906;-79
2024/02/24 01:28:51;;;;;;;7.28;1.98;;;;;;;;;;7410913;19;20341;-79
2024/02/24 01:31:38;;;;;;;5.32;1.58;;;;;;;;;;7409188;19;19918;-78
2024/02/24 01:34:24;;;;;;;5.15;1.35;;;;;;;;;;7410436;19;19930;-79
2024/02/24 01:37:11;;;;;;;3.17;1.23;;;;;;;;;;7410180;19;20337;-78
2024/02/24 01:39:55;;;;;;;;;;;;;;;;;;7412941;19;20282;-78
2024/02/24 01:42:44;;;;;;;3.97;1.50;;;;;;;;;;7408045;19;20274;-78
2024/02/24 01:45:31;;;;;;;2.60;1.20;;;;;;;;;;7411546;19;20186;-78
2024/02/24 01:48:18;;;;;;;1.75;1.10;;;;;;;;;;7410853;19;19979;-78
2024/02/24 01:51:03;;;;;;;3.35;1.17;;;;;;;;;;7417297;19;20327;-78
2024/02/24 01:53:52;;;;;;;;;;;;;;;;;;7426080;19;19911;-78
2024/02/24 01:56:40;;;;;;;3.05;1.42;;;;;;;;;;7425730;19;19911;-78
2024/02/24 01:59:24;;;;;;;3.78;1.35;;;;;;;;;;7426553;19;19940;-78
2024/02/24 02:02:08;;;;;;;6.85;1.70;;;;;;;;;;7424932;19;19922;-78
2024/02/24 02:05:00;;;;;;;2.25;1.20;;;;;;;;;;7425795;19;19919;-78
2024/02/24 02:07:49;;;;;;;4.07;1.42;;;;;;;;;;7419888;19;19922;-78
2024/02/24 02:10:46;;;;;;;3.30;1.98;;;;;;;;;;7425759;19;19918;-78
2024/02/24 02:13:31;;;;;;;4.82;1.63;;;;;;;;;;7419848;19;19922;-78
2024/02/24 02:16:18;;;;;;;4.10;1.60;;;;;;;;;;7423093;19;19914;-78
2024/02/24 02:19:03;;;;;;;9.68;1.90;;;;;;;;;;7423004;19;19919;-78
2024/02/24 02:21:53;;;;;;;3.22;1.52;;;;;;;;;;7422810;19;20258;-78
2024/02/24 02:24:48;;;;;;;4.85;1.50;;;;;;;;;;7422922;19;19941;-79
2024/02/24 02:27:35;;;;;;;4.57;1.65;;;;;;;;;;7422654;19;19940;-79
2024/02/24 02:30:21;;;;;;;3.17;1.50;;;;;;;;;;7421283;19;20256;-79
2024/02/24 02:33:08;;;;;;;2.13;1.15;;;;;;;;;;7421751;19;19922;-79
2024/02/24 02:35:53;;;;;;;3.20;1.98;;;;;;;;;;7421012;19;19922;-79
2024/02/24 02:38:41;;;;;;;2.53;1.40;;;;;;;;;;7426057;19;19922;-79
2024/02/24 02:41:28;;;;;;;3.95;1.48;;;;;;;;;;7421037;19;19922;-79
2024/02/24 02:44:16;;;;;;;3.15;1.52;;;;;;;;;;7421587;19;19948;-79
2024/02/24 02:47:02;;;;;;;3.40;1.60;;;;;;;;;;7423520;19;19906;-79
2024/02/24 02:49:47;;;;;;;2.25;1.52;;;;;;;;;;7425072;19;19918;-79
2024/02/24 02:52:31;;;;;;;3.95;1.88;;;;;;;;;;7424253;19;19914;-79
2024/02/24 02:55:17;;;;;;;4.45;1.90;;;;;;;;;;7422183;19;19944;-79
2024/02/24 02:58:11;;;;;;;3.00;1.55;;;;;;;;;;7421557;19;20084;-79
2024/02/24 03:00:58;;;;;;;3.00;1.20;;;;;;;;;;7419624;19;19922;-79
2024/02/24 03:03:44;;;;;;;2.38;1.40;;;;;;;;;;7416148;19;19911;-79
2024/02/24 03:06:31;;;;;;;2.10;1.30;;;;;;;;;;7416325;19;20009;-79
2024/02/24 03:09:16;;;;;;;2.75;1.50;;;;;;;;;;7416430;19;19923;-79
2024/02/24 03:12:02;;;;;;;2.85;1.40;;;;;;;;;;7414199;19;19925;-79
2024/02/24 03:14:52;;;;;;;1.98;1.10;;;;;;;;;;7413746;19;19914;-79
2024/02/24 03:17:36;;;;;;;3.45;1.48;;;;;;;;;;7414515;19;19918;-79
2024/02/24 03:20:20;;;;;;;3.05;1.27;;;;;;;;;;7413616;19;19919;-79
2024/02/24 03:23:07;;;;;;;3.17;1.30;;;;;;;;;;7413315;19;20365;-79
2024/02/24 03:25:51;;;;;;;4.63;1.65;;;;;;;;;;7413454;19;19922;-79
2024/02/24 03:28:42;;;;;;;3.20;0.98;;;;;;;;;;7414372;19;20340;-79
2024/02/24 03:31:34;;;;;;;2.47;1.50;;;;;;;;;;7412109;19;19936;-79
2024/02/24 03:34:22;;;;;;;10.90;1.95;;;;;;;;;;7411699;19;19968;-79
2024/02/24 03:37:07;;;;;;;3.10;1.48;;;;;;;;;;7410982;19;19922;-79
2024/02/24 03:39:56;;;;;;;2.70;1.50;;;;;;;;;;7413016;19;19926;-79
2024/02/24 03:42:45;;;;;;;2.40;0.90;;;;;;;;;;7412497;19;19923;-79
2024/02/24 03:45:31;;;;;;;2.47;1.40;;;;;;;;;;7409671;19;19926;-79
2024/02/24 03:48:18;;;;;;;2.13;1.30;;;;;;;;;;7406040;19;19982;-77
2024/02/24 03:51:07;;;;;;;3.38;1.20;;;;;;;;;;7406476;19;19945;-78
2024/02/24 03:53:51;;;;;;;3.40;1.30;;;;;;;;;;7411323;19;19911;-78
2024/02/24 03:56:38;;;;;;;1.38;1.00;;;;;;;;;;7408931;19;19926;-78
2024/02/24 03:59:22;;;;;;;2.72;1.35;;;;;;;;;;7408199;19;19919;-78
2024/02/24 04:02:07;;;;;;;1.52;1.00;;;;;;;;;;7406940;19;19918;-78
2024/02/24 04:04:53;;;;;;;2.58;1.17;;;;;;;;;;7409897;19;20324;-78
2024/02/24 04:07:40;;;;;;;3.67;1.13;;;;;;;;;;7407613;19;19915;-78
2024/02/24 04:10:24;;;;;;;2.42;1.20;;;;;;;;;;7408983;19;19933;-78
2024/02/24 04:13:09;;;;;;;2.60;1.00;;;;;;;;;;7405991;19;19922;-78
2024/02/24 04:15:53;;;;;;;4.53;1.10;;;;;;;;;;7405837;19;19932;-78
2024/02/24 04:18:40;;;;;;;5.82;1.30;;;;;;;;;;7409004;19;19911;-78
2024/02/24 04:21:29;;;;;;;5.47;1.65;;;;;;;;;;7408910;19;20488;-78
2024/02/24 04:24:16;;;;;;;2.40;1.42;;;;;;;;;;7409094;19;19918;-78
2024/02/24 04:27:03;;;;;;;2.20;1.00;;;;;;;;;;7405310;19;20330;-78
2024/02/24 04:29:47;;;;;;;5.10;1.70;;;;;;;;;;7407546;19;19922;-78
2024/02/24 04:32:36;;;;;;;1.42;0.85;;;;;;;;;;7407226;19;19915;-78
2024/02/24 04:35:21;;;;;;;3.15;1.33;;;;;;;;;;7409233;19;19945;-78
2024/02/24 04:38:12;;;;;;;6.22;1.15;;;;;;;;;;7405786;19;19970;-78
2024/02/24 04:40:56;;;;;;;4.55;1.17;;;;;;;;;;7408232;19;20288;-78
2024/02/24 04:43:41;;;;;;;1.80;0.85;;;;;;;;;;7407300;19;20368;-78
2024/02/24 04:46:27;;;;;;;2.78;1.20;;;;;;;;;;7405344;19;19930;-78
2024/02/24 04:49:16;;;;;;;2.63;1.30;;;;;;;;;;7408574;19;19919;-78
2024/02/24 04:52:04;;;;;;;2.55;1.25;;;;;;;;;;7407049;19;19957;-78
2024/02/24 04:54:54;;;;;;;5.97;1.70;;;;;;;;;;7407883;19;19933;-78
2024/02/24 04:57:41;;;;;;;2.28;1.20;;;;;;;;;;7406544;19;20002;-78
2024/02/24 05:00:30;;;;;;;2.70;1.50;;;;;;;;;;7406388;19;19914;-78
2024/02/24 05:03:17;;;;;;;5.95;1.98;;;;;;;;;;7409546;19;19915;-78
2024/02/24 05:06:03;;;;;;;6.90;2.00;;;;;;;;;;7407864;19;19922;-78
2024/02/24 05:08:47;;;;;;;6.82;1.58;;;;;;;;;;7405817;19;19918;-78
2024/02/24 05:11:34;;;;;;;2.28;0.95;;;;;;;;;;7405290;19;19914;-78
2024/02/24 05:14:19;;;;;;;3.15;1.38;;;;;;;;;;7409154;19;19914;-78
2024/02/24 05:17:12;;;;;;;3.53;1.50;;;;;;;;;;7405292;19;19950;-78
2024/02/24 05:19:57;;;;;;;5.40;2.05;;;;;;;;;;7408574;19;20001;-78
2024/02/24 05:22:41;;;;;;;2.92;1.25;;;;;;;;;;7406463;19;20297;-78
2024/02/24 05:25:30;;;;;;;2.10;1.20;;;;;;;;;;7403310;19;19936;-79
2024/02/24 05:28:19;;;;;;;3.42;1.25;;;;;;;;;;7406395;19;20336;-79
2024/02/24 05:31:03;;;;;;;2.90;1.20;;;;;;;;;;7406508;19;20257;-79
2024/02/24 05:33:49;;;;;;;5.15;1.70;;;;;;;;;;7409270;19;20329;-79
2024/02/24 05:36:36;;;;;;;5.25;1.65;;;;;;;;;;7405517;19;19922;-79
2024/02/24 05:39:21;;;;;;;1.70;1.00;;;;;;;;;;7403622;19;19911;-79
2024/02/24 05:42:10;;;;;;;;;;;;;;;;;;7408143;19;19963;-78
2024/02/24 05:44:59;;;;;;;2.38;1.20;;;;;;;;;;7406392;19;19918;-78
2024/02/24 05:47:44;;;;;;;2.88;1.38;;;;;;;;;;7403996;19;20249;-79
2024/02/24 05:50:33;;;;;;;2.78;1.20;;;;;;;;;;7403023;19;19923;-79
2024/02/24 05:53:22;;;;;;;2.60;1.27;;;;;;;;;;7407763;19;19929;-79
2024/02/24 05:56:11;;;;;;;1.80;1.27;;;;;;;;;;7406836;19;19911;-79
2024/02/24 05:58:55;;;;;;;3.20;1.10;;;;;;;;;;7406629;19;20290;-79
2024/02/24 06:01:42;;;;;;;3.63;1.35;;;;;;;;;;7407371;19;19915;-79
2024/02/24 06:04:29;;;;;;;5.72;1.55;;;;;;;;;;7408218;19;19915;-79
2024/02/24 06:07:16;;;;;;;2.97;1.33;;;;;;;;;;7405334;19;19911;-78
2024/02/24 06:10:00;;;;;;;4.35;1.73;;;;;;;;;;7405273;19;20234;-78
2024/02/24 06:12:46;;;;;;;3.55;1.70;;;;;;;;;;7406231;19;20325;-79
2024/02/24 06:15:31;;;;;;;2.50;1.20;;;;;;;;;;7405708;19;19934;-79
2024/02/24 06:18:19;;;;;;;2.20;1.10;;;;;;;;;;7405233;19;19915;-79
2024/02/24 06:21:07;;;;;;;7.70;1.80;;;;;;;;;;7404574;19;19926;-79
2024/02/24 06:23:52;;;;;;;2.28;1.45;;;;;;;;;;7407851;19;19911;-79
2024/02/24 06:26:39;;;;;;;4.55;1.50;;;;;;;;;;7406969;19;19929;-79
2024/02/24 06:29:26;;;;;;;3.20;1.38;;;;;;;;;;7406251;19;19914;-79
2024/02/24 06:32:15;;;;;;;2.10;1.15;;;;;;;;;;7403764;19;19911;-79
2024/02/24 06:35:02;;;;;;;2.22;1.40;;;;;;;;;;7408215;19;20330;-79
2024/02/24 06:37:49;;;;;;;2.47;1.33;;;;;;;;;;7410680;19;19919;-79
2024/02/24 06:40:35;;;;;;;4.55;1.98;;;;;;;;;;7409665;19;19975;-79
2024/02/24 06:43:22;;;;;;;3.03;1.50;;;;;;;;;;7414158;19;20328;-79
2024/02/24 06:46:06;;;;;;;5.30;2.97;;;;;;;;;;7412771;19;19914;-79
2024/02/24 06:48:51;;;;;;;6.20;2.88;;;;;;;;;;7410368;19;19944;-79
2024/02/24 06:51:40;;;;;;;8.00;2.90;;;;;;;;;;7411041;19;19914;-81
2024/02/24 06:54:26;;;;;;;5.10;3.03;;;;;;;;;;7409377;19;20257;-79
2024/02/24 06:57:13;;;;;;;7.03;3.17;;;;;;;;;;7414307;19;19914;-79
2024/02/24 06:59:59;;;;;;;1.63;1.10;;;;;;;;;;7413101;19;19938;-79
2024/02/24 07:02:44;;;;;;;1.73;1.02;;;;;;;;;;7412473;19;20340;-79
2024/02/24 07:05:28;;;;;;;1.80;1.25;;;;;;;;;;7411775;19;19913;-76
2024/02/24 07:08:18;;;;;;;10.20;4.20;;;;;;;;;;7408350;19;19927;-78
2024/02/24 07:11:04;;;;;;;11.13;4.53;;;;;;;;;;7406841;19;19923;-77
2024/02/24 07:13:48;;;;;;;7.47;3.55;;;;;;;;;;7408971;19;19910;-77
2024/02/24 07:16:35;;;;;;;10.30;3.72;;;;;;;;;;7410075;19;19926;-77
2024/02/24 07:19:22;;;;;;;8.73;4.55;;;;;;;;;;7409246;19;19926;-77
2024/02/24 07:22:06;;;;;;;10.40;5.22;;;;;;;;;;7407356;19;19927;-77
2024/02/24 07:24:58;;;;;;;16.70;4.38;;;;;;;;;;7408084;19;19918;-77
2024/02/24 07:27:45;;;;;;;10.98;4.53;;;;;;;;;;7407329;19;19926;-77
2024/02/24 07:30:31;;;;;;;9.05;4.43;;;;;;;;;;7408188;19;19974;-77
2024/02/24 07:33:20;;;;;;;14.15;4.75;;;;;;;;;;7409600;19;20352;-78
2024/02/24 07:36:05;;;;;;;11.25;4.30;;;;;;;;;;7407401;19;19940;-78
2024/02/24 07:38:55;;;;;;;9.63;5.05;;;;;;;;;;7410066;19;19917;-77
2024/02/24 07:41:45;;;;;;;8.02;3.90;;;;;;;;;;7409144;19;19982;-77
2024/02/24 07:44:31;;;;;;;9.05;3.65;;;;;;;;;;7408603;19;19926;-77
2024/02/24 07:47:18;;;;;;;8.52;4.65;;;;;;;;;;7407825;19;20254;-77
2024/02/24 07:50:05;;;;;;;11.52;4.88;;;;;;;;;;7409320;19;19915;-77
2024/02/24 07:52:52;;;;;;;8.00;3.20;;;;;;;;;;7408244;19;19921;-77
2024/02/24 07:55:38;;;;;;;6.88;3.63;;;;;;;;;;7406099;19;20457;-77
2024/02/24 07:58:28;;;;;;;8.32;2.33;;;;;;;;;;7406018;19;20253;-77
2024/02/24 08:01:12;;;;;;;4.78;2.85;;;;;;;;;;7406945;19;19910;-77
2024/02/24 08:03:56;;;;;;;6.57;3.42;;;;;;;;;;7408219;19;19926;-77
2024/02/24 08:06:43;;;;;;;4.25;3.00;;;;;;;;;;7406605;19;19918;-79
2024/02/24 08:09:29;;;;;;;7.72;3.50;;;;;;;;;;7406720;19;19918;-78
2024/02/24 08:12:18;;;;;;;6.88;3.58;;;;;;;;;;7407786;19;19919;-78
2024/02/24 08:15:08;;;;;;;6.22;4.18;;;;;;;;;;7405121;19;20302;-78
2024/02/24 08:17:52;;;;;;;7.60;3.90;;;;;;;;;;7408994;19;19914;-78
2024/02/24 08:20:37;;;;;;;9.85;3.47;;;;;;;;;;7406778;19;19918;-78
2024/02/24 08:23:21;;;;;;;6.20;3.88;;;;;;;;;;7408867;19;20333;-78
2024/02/24 08:26:09;;;;;;;6.90;4.07;;;;;;;;;;7404015;19;19922;-78
2024/02/24 08:28:53;;;;;;;8.85;4.90;;;;;;;;;;7406574;19;19915;-78
2024/02/24 08:31:42;;;;;;;6.97;4.15;;;;;;;;;;7406874;19;19914;-78
2024/02/24 08:34:29;;;;;;;5.53;2.50;;;;;;;;;;7406654;19;19918;-78
2024/02/24 08:37:13;;;;;;;2.40;1.60;;;;;;;;;;7408233;19;20360;-78
2024/02/24 08:40:00;;;;;;;1.40;1.17;;;;;;;;;;7407298;19;19922;-78
2024/02/24 08:42:49;;;;;;;2.38;1.30;;;;;;;;;;7408691;19;19914;-78
2024/02/24 08:45:38;;;;;;;2.55;1.23;;;;;;;;;;7405240;19;19914;-78
2024/02/24 08:48:27;;;;;;;1.88;1.17;;;;;;;;;;7406982;19;20338;-78
2024/02/24 08:51:12;;;;;;;2.35;1.50;;;;;;;;;;7407693;19;20341;-78
2024/02/24 08:53:58;;;;;;;3.08;2.00;;;;;;;;;;7412480;19;19926;-79
2024/02/24 08:56:47;;;;;;;2.70;1.20;;;;;;;;;;7411238;19;19922;-79
2024/02/24 08:59:32;;;;;;;3.50;1.95;;;;;;;;;;7403949;19;19918;-78
2024/02/24 09:02:19;;;;;;;2.92;1.80;;;;;;;;;;7400973;19;19941;-79
2024/02/24 09:05:09;;;;;;;2.80;1.88;;;;;;;;;;7406682;19;19930;-79
2024/02/24 09:07:58;;;;;;;3.92;2.10;;;;;;;;;;7404987;19;19941;-79
2024/02/24 09:10:46;;;;;;;2.67;1.48;;;;;;;;;;7406955;19;20355;-77
2024/02/24 09:13:35;;;;;;;3.85;2.13;;;;;;;;;;7408723;19;19919;-79
2024/02/24 09:16:20;;;;;;;2.92;1.65;;;;;;;;;;7404614;19;19929;-78
2024/02/24 09:19:07;;;;;;;1.67;1.05;;;;;;;;;;7408415;19;19919;-78
2024/02/24 09:21:56;;;;;;;1.63;0.98;;;;;;;;;;7405044;19;19926;-79
2024/02/24 09:24:41;;;;;;;1.13;0.82;;;;;;;;;;7407582;19;19937;-79
2024/02/24 09:27:28;;;;;;;1.35;0.60;;;;;;;;;;7403332;19;19918;-79
2024/02/24 09:30:18;;;;;;;1.70;0.65;;;;;;;;;;7408851;19;20333;-79
2024/02/24 09:33:05;;;;;;;0.90;0.40;;;;;;;;;;7400219;19;20253;-79
2024/02/24 09:35:51;;;;;;;0.75;0.20;;;;;;;;;;7406308;19;19923;-79
2024/02/24 09:38:43;;;;;;;1.55;0.45;;;;;;;;;;7405720;19;19926;-79
2024/02/24 09:41:29;;;;;;;2.47;1.67;;;;;;;;;;7406498;19;19940;-79
2024/02/24 09:44:16;;;;;;;0.80;0.40;;;;;;;;;;7406103;19;20340;-78
2024/02/24 09:47:06;;;;;;;1.13;0.52;;;;;;;;;;7404704;19;19918;-80
2024/02/24 09:49:50;;;;;;;1.67;0.40;;;;;;;;;;7408469;19;20242;-80
2024/02/24 09:52:35;;;;;;;2.38;0.55;;;;;;;;;;7410278;19;19934;-80
2024/02/24 09:55:26;;;;;;;0.70;0.45;;;;;;;;;;7410899;19;20266;-81
2024/02/24 09:58:14;;;;;;;0.63;0.40;;;;;;;;;;7406117;19;20279;-81
2024/02/24 10:00:58;;;;;;;3.05;0.70;;;;;;;;;;7404295;19;19940;-81
2024/02/24 10:03:43;;;;;;;0.40;0.40;;;;;;;;;;7408543;19;19918;-81
2024/02/24 10:06:27;;;;;;;1.67;0.50;;;;;;;;;;7409703;19;21280;-81
2024/02/24 10:09:12;;;;;;;0.73;0.30;;;;;;;;;;7410757;19;19910;-81
2024/02/24 10:11:59;;;;;;;1.10;0.50;;;;;;;;;;7413690;19;19919;-81
2024/02/24 10:14:44;;;;;;;0.82;0.40;;;;;;;;;;7415617;19;19938;-81
2024/02/24 10:17:31;;;;;;;0.68;0.40;;;;;;;;;;7414824;19;19927;-81
2024/02/24 10:20:18;;;;;;;0.47;0.30;;;;;;;;;;7415902;19;20244;-81
2024/02/24 10:23:02;;;;;;;1.38;0.50;;;;;;;;;;7415092;19;19914;-81
2024/02/24 10:25:53;;;;;;;1.23;0.40;;;;;;;;;;7416532;19;19937;-81
2024/02/24 10:28:42;;;;;;;0.32;0.20;;;;;;;;;;7417138;19;20337;-81
2024/02/24 10:31:29;;;;;;;1.02;0.70;;;;;;;;;;7412573;19;19918;-81
2024/02/24 10:34:20;;;;;;;0.57;0.47;;;;;;;;;;7416311;19;19922;-81
2024/02/24 10:37:05;;;;;;;0.75;0.30;;;;;;;;;;7413173;19;19936;-81
2024/02/24 10:39:52;;;;;;;2.17;0.90;;;;;;;;;;7414994;19;19907;-78
2024/02/24 10:42:42;;;;;;;0.55;0.55;;;;;;;;;;7409799;19;19935;-79
2024/02/24 10:45:32;;;;;;;0.47;0.38;;;;;;;;;;7419109;19;19978;-79
2024/02/24 10:48:19;;;;;;;1.75;0.30;;;;;;;;;;7414015;19;19930;-79
2024/02/24 10:51:06;;;;;;;0.65;0.40;;;;;;;;;;7418471;19;19917;-79
2024/02/24 10:53:55;;;;;;;1.17;0.47;;;;;;;;;;7420231;19;19918;-79
2024/02/24 10:56:41;;;;;;;1.30;0.30;;;;;;;;;;7417409;19;19994;-79
2024/02/24 10:59:31;;;;;;;0.95;0.30;;;;;;;;;;7416868;19;20345;-79
2024/02/24 11:02:20;;;;;;;0.57;0.40;;;;;;;;;;7418565;19;19935;-79
2024/02/24 11:05:12;;;;;;;0.30;0.22;;;;;;;;;;7421077;19;19902;-79
2024/02/24 11:07:56;;;;;;;0.40;0.30;;;;;;;;;;7416793;19;20245;-79
2024/02/24 11:10:44;;;;;;;0.40;0.30;;;;;;;;;;7417593;19;19978;-79
2024/02/24 11:13:30;;;;;;;1.35;0.60;;;;;;;;;;7420631;19;19927;-79
2024/02/24 11:16:18;;;;;;;1.58;0.30;;;;;;;;;;7422381;19;19950;-79
2024/02/24 11:19:10;;;;;;;1.90;0.40;;;;;;;;;;7420638;19;19922;-79
2024/02/24 11:22:03;;;;;;;0.20;0.20;;;;;;;;;;7417635;19;20321;-79
2024/02/24 11:24:47;;;;;;;0.60;0.30;;;;;;;;;;7419143;19;19917;-79
2024/02/24 11:27:34;;;;;;;0.82;0.60;;;;;;;;;;7416469;19;19922;-79
2024/02/24 11:30:46;;;;;;;1.52;0.40;;;;;;;;;;7414010;19;19919;-78
2024/02/24 11:33:32;;;;;;;0.95;0.40;;;;;;;;;;7411516;19;21154;-79
2024/02/24 11:36:21;;;;;;;0.85;0.50;;;;;;;;;;7416035;19;19914;-79
2024/02/24 11:39:11;;;;;;;2.88;0.40;;;;;;;;;;7417462;19;20377;-79
2024/02/24 11:41:59;;;;;;;1.10;0.50;;;;;;;;;;7417099;19;19936;-79
2024/02/24 11:44:48;;;;;;;0.80;0.43;;;;;;;;;;7415959;19;19921;-79
2024/02/24 11:47:38;;;;;;;1.55;0.50;;;;;;;;;;7414073;19;19918;-79
2024/02/24 11:50:22;;;;;;;0.77;0.40;;;;;;;;;;7413873;19;19907;-79
2024/02/24 11:53:09;;;;;;;0.70;0.70;;;;;;;;;;7414351;19;19978;-78
2024/02/24 11:55:53;;;;;;;0.60;0.40;;;;;;;;;;7417125;19;19911;-79
2024/02/24 11:58:40;;;;;;;2.30;0.80;;;;;;;;;;7417263;19;19922;-79
2024/02/24 12:01:29;;;;;;;2.67;0.98;;;;;;;;;;7417305;19;19919;-79
2024/02/24 12:04:15;;;;;;;2.95;0.90;;;;;;;;;;7417032;19;19910;-79
2024/02/24 12:07:04;;;;;;;1.45;0.52;;;;;;;;;;7418090;19;20697;-79
2024/02/24 12:09:51;;;;;;;1.88;0.40;;;;;;;;;;7417071;19;19938;-79
2024/02/24 12:12:41;;;;;;;1.35;0.60;;;;;;;;;;7415688;19;19917;-79
2024/02/24 12:15:25;;;;;;;0.52;0.38;;;;;;;;;;7414589;19;19974;-79
2024/02/24 12:18:12;;;;;;;0.80;0.40;;;;;;;;;;7413373;19;19929;-79
2024/02/24 12:20:56;;;;;;;0.43;0.30;;;;;;;;;;7416122;19;19921;-79
2024/02/24 12:23:42;;;;;;;0.68;0.20;;;;;;;;;;7417650;19;19914;-79
2024/02/24 12:26:32;;;;;;;1.30;0.45;;;;;;;;;;7413743;19;19915;-79
2024/02/24 12:29:18;;;;;;;;;;;;;;;;;;7418396;19;19978;-79
2024/02/24 12:32:05;;;;;;;3.25;0.65;;;;;;;;;;7418680;19;19938;-79
2024/02/24 12:34:49;;;;;;;4.30;1.30;;;;;;;;;;7416030;19;19927;-78
2024/02/24 12:37:36;;;;;;;1.02;0.45;;;;;;;;;;7414590;19;19910;-79
2024/02/24 12:40:30;;;;;;;0.50;0.35;;;;;;;;;;7414832;19;20420;-79
2024/02/24 12:43:19;;;;;;;0.73;0.30;;;;;;;;;;7419072;19;19929;-79
2024/02/24 12:46:07;;;;;;;0.35;0.20;;;;;;;;;;7426367;19;19914;-79
2024/02/24 12:48:51;;;;;;;0.60;0.32;;;;;;;;;;7426483;19;19914;-79
2024/02/24 12:51:35;;;;;;;1.33;0.60;;;;;;;;;;7426883;19;19918;-79
2024/02/24 12:54:22;;;;;;;3.65;1.40;;;;;;;;;;7428942;19;19919;-79
2024/02/24 12:57:08;;;;;;;2.05;0.80;;;;;;;;;;7420564;19;19906;-79
2024/02/24 12:59:57;;;;;;;2.50;0.43;;;;;;;;;;7421819;19;19922;-79
2024/02/24 13:02:42;;;;;;;1.05;0.40;;;;;;;;;;7413551;19;19911;-79
2024/02/24 13:05:26;;;;;;;1.38;0.40;;;;;;;;;;7412338;19;19918;-79
2024/02/24 13:08:10;;;;;;;1.83;1.20;;;;;;;;;;7408521;19;19973;-79
2024/02/24 13:10:57;;;;;;;2.30;0.73;;;;;;;;;;7409085;19;19923;-79
2024/02/24 13:13:42;;;;;;;2.22;0.90;;;;;;;;;;7414027;19;19940;-79
2024/02/24 13:16:31;;;;;;;2.55;1.10;;;;;;;;;;7413899;19;19921;-79
2024/02/24 13:19:17;;;;;;;2.65;1.15;;;;;;;;;;7413666;19;20265;-79
2024/02/24 13:22:04;;;;;;;1.77;0.70;;;;;;;;;;7418304;19;19907;-79
2024/02/24 13:24:48;;;;;;;1.45;0.45;;;;;;;;;;7422807;19;19966;-79
2024/02/24 13:27:33;;;;;;;3.40;1.40;;;;;;;;;;7417720;19;19936;-79
2024/02/24 13:30:20;;;;;;;0.60;0.40;;;;;;;;;;7419711;19;19922;-79
2024/02/24 13:33:07;;;;;;;1.33;0.30;;;;;;;;;;7413459;19;19992;-79
2024/02/24 13:35:54;;;;;;;1.42;0.43;;;;;;;;;;7414309;19;19915;-79
2024/02/24 13:38:43;;;;;;;1.42;0.45;;;;;;;;;;7416656;19;19918;-79
2024/02/24 13:41:29;;;;;;;0.60;0.20;;;;;;;;;;7415456;19;19921;-79
2024/02/24 13:44:17;;;;;;;1.70;0.55;;;;;;;;;;7412198;19;19915;-79
2024/02/24 13:47:01;;;;;;;0.30;0.25;;;;;;;;;;7412960;19;19940;-79
2024/02/24 13:49:53;;;;;;;0.52;0.40;;;;;;;;;;7417148;19;19947;-79
2024/02/24 13:52:37;;;;;;;1.30;0.38;;;;;;;;;;7416710;19;19946;-79
2024/02/24 13:55:24;;;;;;;1.58;0.30;;;;;;;;;;7418087;19;20264;-79
2024/02/24 13:58:09;;;;;;;2.13;0.52;;;;;;;;;;7415054;19;19910;-79
2024/02/24 14:00:55;;;;;;;1.65;0.32;;;;;;;;;;7414944;19;19914;-79
2024/02/24 14:03:41;;;;;;;1.65;0.38;;;;;;;;;;7417901;19;19933;-79
2024/02/24 14:06:28;;;;;;;1.13;0.40;;;;;;;;;;7414753;19;19917;-79
2024/02/24 14:09:15;;;;;;;0.85;0.43;;;;;;;;;;7413057;19;19918;-78
2024/02/24 14:12:02;;;;;;;1.23;0.32;;;;;;;;;;7402864;19;20636;-78
2024/02/24 14:14:49;;;;;;;0.50;0.30;;;;;;;;;;7413135;19;20296;-78
2024/02/24 14:17:36;;;;;;;1.63;0.40;;;;;;;;;;7401612;19;19932;-78
2024/02/24 14:20:20;;;;;;;1.20;0.30;;;;;;;;;;7405896;19;19913;-78
2024/02/24 14:23:09;;;;;;;2.30;0.47;;;;;;;;;;7400072;19;19983;-78
2024/02/24 14:25:54;;;;;;;1.52;0.47;;;;;;;;;;7403242;19;19918;-79
2024/02/24 14:28:38;;;;;;;0.77;0.40;;;;;;;;;;7405986;19;19926;-79
2024/02/24 14:31:25;;;;;;;0.93;0.30;;;;;;;;;;7400609;19;19915;-79
2024/02/24 14:34:09;;;;;;;0.30;0.30;;;;;;;;;;7415170;19;19918;-79
2024/02/24 14:36:53;;;;;;;0.82;0.30;;;;;;;;;;7410560;19;19914;-79
2024/02/24 14:39:43;;;;;;;1.02;0.65;;;;;;;;;;7411923;19;19923;-79
2024/02/24 14:42:30;;;;;;;3.55;0.52;;;;;;;;;;7409141;19;19922;-79
2024/02/24 14:45:16;;;;;;;4.43;0.65;;;;;;;;;;7411560;19;19915;-79
2024/02/24 14:48:03;;;;;;;0.40;0.22;;;;;;;;;;7408936;19;20280;-79
2024/02/24 14:50:47;;;;;;;1.13;0.43;;;;;;;;;;7409709;19;19914;-79
2024/02/24 14:53:34;;;;;;;0.98;0.38;;;;;;;;;;7411141;19;19926;-79
2024/02/24 14:56:21;;;;;;;0.30;0.20;;;;;;;;;;7412768;19;19933;-79
2024/02/24 14:59:08;;;;;;;1.00;0.30;;;;;;;;;;7417857;19;19923;-79
2024/02/24 15:01:54;;;;;;;1.00;0.52;;;;;;;;;;7417045;19;19914;-79
2024/02/24 15:04:38;;;;;;;3.05;1.10;;;;;;;;;;7417592;19;20256;-79
2024/02/24 15:07:23;;;;;;;2.33;1.00;;;;;;;;;;7417339;19;19919;-79
2024/02/24 15:10:10;;;;;;;2.50;1.13;;;;;;;;;;7417680;19;19930;-79
2024/02/24 15:13:01;;;;;;;4.63;2.17;;;;;;;;;;7418625;19;20381;-79
2024/02/24 15:15:48;;;;;;;2.42;0.95;;;;;;;;;;7417383;19;19910;-79
2024/02/24 15:18:34;;;;;;;2.75;1.40;;;;;;;;;;7415920;19;19934;-79
2024/02/24 15:21:21;;;;;;;3.45;1.00;;;;;;;;;;7416932;19;19925;-79
2024/02/24 15:24:06;;;;;;;0.65;0.43;;;;;;;;;;7417104;19;20000;-79
2024/02/24 15:26:55;;;;;;;3.05;0.68;;;;;;;;;;7416503;19;19907;-79
2024/02/24 15:29:42;;;;;;;5.65;2.47;;;;;;;;;;7415282;19;19941;-79
2024/02/24 15:32:30;;;;;;;1.30;0.60;;;;;;;;;;7414692;19;19918;-79
2024/02/24 15:35:20;;;;;;;1.25;0.75;;;;;;;;;;7411561;19;19930;-79
2024/02/24 15:38:05;;;;;;;3.22;0.70;;;;;;;;;;7407636;19;20338;-79
2024/02/24 15:40:50;;;;;;;1.40;0.70;;;;;;;;;;7409154;19;19915;-79
2024/02/24 15:43:34;;;;;;;1.30;0.75;;;;;;;;;;7409964;19;20302;-79
2024/02/24 15:46:21;;;;;;;1.48;0.80;;;;;;;;;;7407816;19;19910;-76
2024/02/24 15:49:05;;;;;;;1.95;0.63;;;;;;;;;;7411033;19;20341;-79
2024/02/24 15:51:49;;;;;;;1.42;0.90;;;;;;;;;;7410053;19;19918;-79
2024/02/24 15:54:34;;;;;;;1.27;0.52;;;;;;;;;;7413445;19;19932;-79
2024/02/24 15:57:18;;;;;;;0.93;0.40;;;;;;;;;;7409979;19;19929;-79
2024/02/24 16:00:03;;;;;;;1.90;0.85;;;;;;;;;;7408800;19;20325;-79
2024/02/24 16:02:54;;;;;;;1.77;0.77;;;;;;;;;;7407160;19;19928;-79
2024/02/24 16:05:43;;;;;;;0.65;0.43;;;;;;;;;;7412572;19;19966;-80
2024/02/24 16:08:29;;;;;;;1.08;0.52;;;;;;;;;;7412951;19;19910;-80
2024/02/24 16:11:14;;;;;;;1.55;0.60;;;;;;;;;;7409347;19;19915;-80
2024/02/24 16:14:00;;;;;;;1.15;0.77;;;;;;;;;;7406313;19;19929;-80
2024/02/24 16:16:47;;;;;;;1.80;0.43;;;;;;;;;;7403927;19;19918;-80
2024/02/24 16:19:34;;;;;;;2.90;1.30;;;;;;;;;;7411821;19;19910;-80
2024/02/24 16:22:20;;;;;;;4.82;2.58;;;;;;;;;;7410474;19;19923;-80
2024/02/24 16:25:11;;;;;;;3.47;2.58;;;;;;;;;;7413265;19;19923;-80
2024/02/24 16:27:58;;;;;;;8.18;4.15;;;;;;;;;;7409019;19;19910;-80
2024/02/24 16:30:45;;;;;;;7.70;3.70;;;;;;;;;;7407943;19;19923;-80
2024/02/24 16:33:30;;;;;;;5.78;3.30;;;;;;;;;;7408711;19;19906;-80
2024/02/24 16:36:23;;;;;;;4.22;1.80;;;;;;;;;;7412044;19;20334;-80
2024/02/24 16:39:11;;;;;;;1.92;1.17;;;;;;;;;;7410237;19;19996;-80
2024/02/24 16:41:55;;;;;;;1.85;1.15;;;;;;;;;;7412717;19;20324;-79